createdAt,value
2018-09-06T00:00:01.298Z,9.13
2018-09-06T00:00:34.218Z,8.70
2018-09-06T00:01:07.509Z,8.33
2018-09-06T00:01:41.837Z,8.13
2018-09-06T00:02:14.833Z,9.15
2018-09-06T00:02:47.742Z,9.38
2018-09-06T00:03:20.918Z,9.35
2018-09-06T00:03:53.868Z,8.63
2018-09-06T00:04:26.977Z,8.85
2018-09-06T00:05:00.062Z,8.00
2018-09-06T00:05:32.949Z,8.48
2018-09-06T00:06:06.042Z,7.75
2018-09-06T00:06:38.961Z,10.13
2018-09-06T00:07:11.938Z,10.00
2018-09-06T00:07:44.873Z,9.98
2018-09-06T00:08:17.778Z,9.25
2018-09-06T00:08:50.713Z,10.25
2018-09-06T00:09:23.741Z,10.32
2018-09-06T00:09:56.718Z,10.98
2018-09-06T00:10:29.627Z,9.50
2018-09-06T00:11:02.645Z,10.50
2018-09-06T00:11:35.833Z,9.03
2018-09-06T00:12:08.773Z,9.85
2018-09-06T00:12:41.874Z,11.60
2018-09-06T00:13:14.785Z,11.95
2018-09-06T00:13:47.714Z,10.75
2018-09-06T00:14:20.627Z,9.58
2018-09-06T00:14:53.556Z,9.35
2018-09-06T00:15:26.509Z,8.23
2018-09-06T00:15:59.427Z,9.50
2018-09-06T00:16:32.348Z,9.68
2018-09-06T00:17:05.243Z,10.03
2018-09-06T00:17:38.320Z,9.88
2018-09-06T00:18:11.475Z,11.90
2018-09-06T00:18:44.393Z,9.40
2018-09-06T00:19:17.527Z,8.23
2018-09-06T00:19:50.453Z,9.15
2018-09-06T00:20:23.408Z,8.28
2018-09-06T00:20:56.491Z,11.10
2018-09-06T00:21:29.621Z,10.38
2018-09-06T00:22:02.544Z,10.10
2018-09-06T00:22:35.673Z,9.45
2018-09-06T00:23:08.722Z,9.40
2018-09-06T00:23:41.771Z,8.38
2018-09-06T00:24:14.714Z,9.88
2018-09-06T00:24:47.825Z,10.60
2018-09-06T00:25:20.966Z,9.80
2018-09-06T00:25:53.900Z,9.28
2018-09-06T00:26:27.018Z,10.30
2018-09-06T00:26:59.935Z,9.75
2018-09-06T00:28:27.951Z,8.95
2018-09-06T00:29:00.954Z,9.43
2018-09-06T00:29:34.101Z,9.00
2018-09-06T00:30:07.058Z,9.20
2018-09-06T00:30:40.295Z,10.20
2018-09-06T00:31:13.225Z,9.75
2018-09-06T00:31:46.344Z,8.90
2018-09-06T00:32:19.685Z,9.65
2018-09-06T00:32:52.614Z,9.88
2018-09-06T00:33:25.777Z,9.48
2018-09-06T00:33:58.965Z,9.28
2018-09-06T00:34:31.889Z,9.93
2018-09-06T00:35:05.110Z,8.48
2018-09-06T00:35:38.186Z,9.23
2018-09-06T00:36:11.160Z,9.23
2018-09-06T00:36:45.425Z,9.13
2018-09-06T00:37:19.441Z,9.18
2018-09-06T00:37:52.360Z,8.98
2018-09-06T00:38:25.386Z,9.80
2018-09-06T00:38:58.484Z,8.63
2018-09-06T00:39:31.611Z,9.75
2018-09-06T00:40:04.831Z,9.40
2018-09-06T00:40:37.746Z,9.58
2018-09-06T00:41:10.663Z,10.55
2018-09-06T00:41:43.718Z,9.33
2018-09-06T00:42:16.692Z,9.45
2018-09-06T00:42:49.634Z,9.65
2018-09-06T00:43:22.552Z,8.90
2018-09-06T00:43:55.559Z,9.85
2018-09-06T00:44:28.480Z,9.45
2018-09-06T00:45:01.605Z,9.83
2018-09-06T00:45:34.733Z,9.63
2018-09-06T00:46:07.700Z,9.40
2018-09-06T00:46:40.658Z,9.15
2018-09-06T00:47:13.668Z,9.13
2018-09-06T00:47:46.626Z,9.55
2018-09-06T00:48:19.965Z,9.58
2018-09-06T00:48:52.949Z,10.50
2018-09-06T00:49:26.050Z,9.90
2018-09-06T00:49:58.982Z,9.50
2018-09-06T00:50:37.022Z,9.10
2018-09-06T00:51:10.269Z,9.88
2018-09-06T00:51:43.181Z,9.80
2018-09-06T00:52:16.318Z,9.45
2018-09-06T00:52:50.336Z,9.58
2018-09-06T00:53:23.275Z,9.75
2018-09-06T00:53:56.393Z,8.85
2018-09-06T00:54:29.342Z,8.85
2018-09-06T00:55:02.480Z,9.65
2018-09-06T00:55:35.454Z,10.48
2018-09-06T00:56:08.400Z,9.80
2018-09-06T00:56:41.429Z,9.53
2018-09-06T00:57:14.562Z,9.58
2018-09-06T00:57:47.521Z,9.20
2018-09-06T00:58:20.669Z,9.58
2018-09-06T00:58:53.620Z,9.00
2018-09-06T00:59:26.677Z,8.63
2018-09-06T00:59:59.606Z,9.40
2018-09-06T01:00:32.717Z,9.00
2018-09-06T01:01:05.649Z,9.43
2018-09-06T01:01:38.594Z,9.35
2018-09-06T01:02:11.678Z,9.98
2018-09-06T01:02:44.999Z,8.65
2018-09-06T01:03:17.935Z,9.53
2018-09-06T01:03:50.932Z,9.58
2018-09-06T01:04:24.105Z,9.43
2018-09-06T01:04:58.042Z,8.85
2018-09-06T01:05:31.282Z,9.68
2018-09-06T01:06:04.217Z,8.93
2018-09-06T01:06:37.234Z,9.53
2018-09-06T01:07:10.165Z,8.90
2018-09-06T01:07:43.148Z,9.28
2018-09-06T01:08:16.335Z,9.30
2018-09-06T01:08:49.464Z,9.63
2018-09-06T01:09:22.401Z,9.78
2018-09-06T01:09:55.311Z,9.40
2018-09-06T01:10:28.255Z,10.60
2018-09-06T01:11:01.263Z,9.95
2018-09-06T01:11:34.187Z,11.25
2018-09-06T01:12:07.307Z,9.55
2018-09-06T01:12:40.347Z,10.28
2018-09-06T01:13:13.310Z,9.60
2018-09-06T01:13:46.270Z,9.50
2018-09-06T01:14:19.180Z,9.60
2018-09-06T01:14:52.322Z,9.58
2018-09-06T01:15:25.466Z,10.38
2018-09-06T01:15:58.675Z,10.13
2018-09-06T01:16:31.584Z,9.50
2018-09-06T01:17:04.518Z,10.30
2018-09-06T01:17:37.451Z,9.13
2018-09-06T01:18:10.380Z,9.40
2018-09-06T01:18:43.325Z,9.53
2018-09-06T01:19:16.252Z,9.55
2018-09-06T01:19:49.197Z,10.13
2018-09-06T01:20:22.138Z,9.00
2018-09-06T01:20:55.165Z,9.28
2018-09-06T01:21:28.115Z,9.40
2018-09-06T01:22:01.050Z,9.18
2018-09-06T01:22:33.989Z,10.03
2018-09-06T01:23:06.937Z,9.50
2018-09-06T01:23:39.867Z,9.65
2018-09-06T01:24:12.983Z,10.50
2018-09-06T01:24:45.912Z,10.65
2018-09-06T01:25:19.641Z,10.28
2018-09-06T01:25:52.822Z,8.90
2018-09-06T01:26:25.776Z,10.10
2018-09-06T01:26:58.696Z,9.88
2018-09-06T01:27:31.692Z,8.95
2018-09-06T01:28:04.711Z,9.75
2018-09-06T01:28:37.787Z,9.25
2018-09-06T01:29:10.925Z,10.10
2018-09-06T01:29:43.917Z,9.85
2018-09-06T01:30:16.977Z,9.45
2018-09-06T01:30:50.322Z,9.63
2018-09-06T01:31:23.496Z,9.75
2018-09-06T01:31:56.421Z,10.50
2018-09-06T01:32:29.426Z,10.18
2018-09-06T01:33:02.494Z,9.80
2018-09-06T01:33:35.454Z,9.78
2018-09-06T01:34:08.425Z,10.58
2018-09-06T01:34:41.542Z,9.40
2018-09-06T01:35:14.497Z,9.10
2018-09-06T01:35:53.102Z,9.35
2018-09-06T01:36:33.002Z,10.00
2018-09-06T01:37:09.327Z,10.30
2018-09-06T01:37:42.252Z,9.13
2018-09-06T01:38:15.567Z,10.28
2018-09-06T01:38:48.538Z,10.35
2018-09-06T01:39:21.470Z,10.15
2018-09-06T01:39:54.437Z,10.38
2018-09-06T01:40:27.428Z,9.93
2018-09-06T01:41:00.565Z,9.95
2018-09-06T01:41:33.476Z,10.10
2018-09-06T01:42:07.129Z,9.83
2018-09-06T01:42:40.166Z,10.15
2018-09-06T01:43:13.277Z,10.18
2018-09-06T01:43:46.201Z,10.03
2018-09-06T01:44:19.139Z,9.68
2018-09-06T01:44:52.105Z,9.55
2018-09-06T01:45:25.051Z,9.55
2018-09-06T01:45:57.982Z,10.40
2018-09-06T01:46:30.953Z,10.03
2018-09-06T01:47:04.043Z,9.85
2018-09-06T01:47:37.190Z,9.65
2018-09-06T01:48:10.439Z,10.53
2018-09-06T01:48:43.711Z,10.32
2018-09-06T01:49:16.717Z,9.58
2018-09-06T01:49:49.888Z,10.55
2018-09-06T01:50:23.370Z,9.38
2018-09-06T01:50:56.272Z,9.23
2018-09-06T01:51:29.197Z,10.82
2018-09-06T01:52:02.114Z,10.10
2018-09-06T01:52:35.045Z,10.00
2018-09-06T01:53:08.070Z,11.43
2018-09-06T01:53:41.035Z,10.10
2018-09-06T01:54:14.007Z,10.63
2018-09-06T01:54:47.004Z,10.45
2018-09-06T01:55:20.144Z,10.95
2018-09-06T01:55:53.069Z,10.18
2018-09-06T01:56:26.000Z,9.80
2018-09-06T01:56:59.061Z,10.68
2018-09-06T01:57:31.978Z,10.13
2018-09-06T01:58:05.108Z,9.10
2018-09-06T01:58:38.037Z,10.10
2018-09-06T01:59:13.621Z,10.00
2018-09-06T01:59:46.554Z,9.70
2018-09-06T02:00:19.704Z,10.60
2018-09-06T02:00:52.883Z,10.55
2018-09-06T02:01:25.995Z,10.55
2018-09-06T02:01:58.954Z,9.40
2018-09-06T02:02:32.060Z,11.43
2018-09-06T02:03:05.305Z,10.10
2018-09-06T02:03:38.750Z,9.60
2018-09-06T02:04:11.669Z,10.13
2018-09-06T02:04:44.800Z,10.10
2018-09-06T02:05:23.161Z,9.90
2018-09-06T02:05:56.079Z,9.60
2018-09-06T02:06:29.001Z,8.90
2018-09-06T02:07:02.120Z,10.58
2018-09-06T02:07:35.345Z,12.00
2018-09-06T02:08:08.285Z,10.20
2018-09-06T02:08:41.200Z,10.23
2018-09-06T02:09:14.123Z,10.48
2018-09-06T02:09:47.084Z,9.53
2018-09-06T02:10:20.321Z,10.08
2018-09-06T02:10:53.358Z,10.20
2018-09-06T02:11:26.284Z,9.50
2018-09-06T02:11:59.242Z,10.13
2018-09-06T02:12:32.418Z,10.30
2018-09-06T02:13:05.541Z,10.65
2018-09-06T02:13:38.489Z,9.10
2018-09-06T02:14:11.420Z,10.45
2018-09-06T02:14:44.750Z,10.10
2018-09-06T02:15:18.095Z,9.95
2018-09-06T02:15:51.037Z,10.53
2018-09-06T02:16:24.034Z,10.40
2018-09-06T02:16:57.196Z,10.20
2018-09-06T02:17:30.116Z,10.18
2018-09-06T02:18:03.260Z,9.75
2018-09-06T02:18:36.172Z,10.30
2018-09-06T02:19:09.252Z,8.93
2018-09-06T02:19:42.765Z,9.43
2018-09-06T02:20:15.987Z,10.00
2018-09-06T02:20:49.125Z,10.25
2018-09-06T02:21:22.058Z,10.35
2018-09-06T02:21:55.167Z,9.73
2018-09-06T02:22:28.107Z,10.63
2018-09-06T02:23:01.202Z,9.85
2018-09-06T02:23:34.403Z,10.30
2018-09-06T02:24:07.602Z,9.95
2018-09-06T02:24:40.797Z,10.68
2018-09-06T02:25:13.947Z,10.85
2018-09-06T02:25:47.155Z,9.83
2018-09-06T02:26:20.108Z,10.85
2018-09-06T02:26:53.197Z,9.70
2018-09-06T02:27:26.329Z,10.85
2018-09-06T02:27:59.254Z,10.23
2018-09-06T02:28:32.167Z,10.43
2018-09-06T02:29:05.245Z,10.08
2018-09-06T02:29:38.170Z,10.18
2018-09-06T02:30:11.126Z,11.03
2018-09-06T02:30:44.220Z,10.45
2018-09-06T02:31:17.415Z,12.03
2018-09-06T02:31:50.370Z,10.58
2018-09-06T02:32:23.289Z,10.38
2018-09-06T02:32:56.490Z,10.85
2018-09-06T02:33:29.432Z,10.43
2018-09-06T02:34:02.725Z,10.58
2018-09-06T02:34:35.961Z,10.68
2018-09-06T02:35:09.117Z,10.20
2018-09-06T02:35:42.152Z,9.88
2018-09-06T02:36:15.413Z,11.20
2018-09-06T02:36:48.572Z,9.58
2018-09-06T02:37:21.619Z,9.03
2018-09-06T02:37:54.658Z,9.78
2018-09-06T02:38:27.603Z,11.12
2018-09-06T02:39:00.646Z,11.03
2018-09-06T02:39:33.596Z,11.10
2018-09-06T02:40:07.286Z,9.93
2018-09-06T02:40:40.784Z,10.48
2018-09-06T02:41:13.714Z,10.03
2018-09-06T02:41:46.870Z,10.85
2018-09-06T02:42:20.050Z,10.88
2018-09-06T02:42:53.003Z,10.78
2018-09-06T02:43:26.106Z,11.18
2018-09-06T02:43:59.237Z,10.15
2018-09-06T02:44:32.410Z,10.55
2018-09-06T02:45:05.353Z,10.20
2018-09-06T02:45:38.761Z,11.25
2018-09-06T02:46:11.704Z,11.48
2018-09-06T02:46:44.879Z,10.13
2018-09-06T02:47:17.856Z,10.48
2018-09-06T02:47:54.217Z,10.78
2018-09-06T02:48:32.732Z,10.70
2018-09-06T02:49:05.666Z,10.45
2018-09-06T02:49:44.172Z,10.63
2018-09-06T02:50:22.674Z,10.98
2018-09-06T02:51:01.230Z,9.98
2018-09-06T02:51:34.169Z,10.35
2018-09-06T02:52:07.106Z,10.25
2018-09-06T02:52:40.293Z,10.58
2018-09-06T02:53:13.445Z,10.80
2018-09-06T02:53:46.426Z,11.80
2018-09-06T02:54:19.519Z,10.43
2018-09-06T02:54:52.720Z,9.93
2018-09-06T02:55:27.393Z,11.35
2018-09-06T02:56:00.612Z,11.40
2018-09-06T02:56:33.545Z,10.63
2018-09-06T02:57:06.606Z,11.25
2018-09-06T02:57:39.504Z,11.75
2018-09-06T02:58:12.423Z,9.75
2018-09-06T02:58:45.374Z,11.38
2018-09-06T02:59:18.419Z,11.63
2018-09-06T02:59:51.383Z,11.05
2018-09-06T03:00:28.417Z,10.58
2018-09-06T03:01:01.361Z,10.78
2018-09-06T03:01:34.563Z,10.98
2018-09-06T03:02:07.724Z,10.20
2018-09-06T03:02:40.899Z,10.38
2018-09-06T03:03:13.874Z,11.45
2018-09-06T03:03:46.786Z,10.32
2018-09-06T03:04:19.773Z,10.72
2018-09-06T03:04:52.689Z,10.82
2018-09-06T03:05:26.245Z,10.88
2018-09-06T03:05:59.258Z,11.38
2018-09-06T03:06:32.184Z,11.40
2018-09-06T03:07:05.102Z,11.90
2018-09-06T03:07:38.288Z,11.33
2018-09-06T03:08:11.425Z,12.07
2018-09-06T03:08:44.324Z,10.90
2018-09-06T03:09:17.527Z,10.68
2018-09-06T03:09:50.671Z,9.95
2018-09-06T03:10:23.771Z,10.65
2018-09-06T03:11:02.124Z,11.53
2018-09-06T03:11:40.569Z,11.10
2018-09-06T03:12:13.522Z,10.70
2018-09-06T03:12:46.465Z,10.10
2018-09-06T03:13:19.388Z,10.55
2018-09-06T03:13:53.014Z,10.55
2018-09-06T03:14:25.948Z,11.10
2018-09-06T03:14:59.047Z,10.23
2018-09-06T03:15:31.999Z,10.20
2018-09-06T03:16:05.109Z,10.38
2018-09-06T03:16:38.037Z,10.65
2018-09-06T03:17:11.203Z,11.48
2018-09-06T03:17:44.120Z,11.15
2018-09-06T03:18:17.034Z,10.85
2018-09-06T03:18:50.181Z,11.38
2018-09-06T03:19:23.095Z,12.10
2018-09-06T03:19:56.193Z,11.38
2018-09-06T03:20:29.117Z,11.05
2018-09-06T03:21:02.241Z,10.70
2018-09-06T03:21:35.193Z,11.70
2018-09-06T03:22:08.285Z,11.63
2018-09-06T03:22:41.432Z,10.65
2018-09-06T03:23:14.344Z,11.28
2018-09-06T03:23:47.261Z,11.15
2018-09-06T03:24:20.185Z,10.72
2018-09-06T03:24:53.243Z,10.43
2018-09-06T03:25:26.439Z,12.63
2018-09-06T03:25:59.562Z,11.12
2018-09-06T03:26:32.462Z,11.03
2018-09-06T03:27:05.375Z,10.70
2018-09-06T03:27:38.333Z,11.00
2018-09-06T03:28:11.403Z,11.00
2018-09-06T03:28:45.992Z,11.15
2018-09-06T03:29:18.933Z,12.47
2018-09-06T03:29:51.854Z,11.68
2018-09-06T03:30:24.805Z,10.95
2018-09-06T03:30:57.869Z,11.45
2018-09-06T03:31:31.417Z,10.98
2018-09-06T03:32:04.521Z,11.40
2018-09-06T03:32:37.736Z,11.78
2018-09-06T03:33:10.715Z,11.70
2018-09-06T03:33:44.065Z,11.95
2018-09-06T03:34:17.268Z,12.95
2018-09-06T03:34:50.215Z,11.43
2018-09-06T03:35:23.149Z,11.63
2018-09-06T03:35:56.236Z,11.75
2018-09-06T03:36:29.586Z,11.60
2018-09-06T03:37:02.561Z,11.15
2018-09-06T03:37:35.736Z,10.93
2018-09-06T03:38:08.690Z,11.57
2018-09-06T03:38:41.661Z,11.85
2018-09-06T03:39:14.655Z,12.80
2018-09-06T03:39:47.871Z,12.03
2018-09-06T03:40:21.026Z,11.88
2018-09-06T03:40:54.071Z,11.73
2018-09-06T03:41:27.043Z,10.88
2018-09-06T03:42:00.009Z,12.00
2018-09-06T03:42:33.373Z,12.15
2018-09-06T03:43:06.346Z,11.65
2018-09-06T03:43:39.298Z,12.35
2018-09-06T03:44:12.356Z,11.90
2018-09-06T03:44:45.285Z,11.48
2018-09-06T03:45:18.438Z,13.50
2018-09-06T03:45:51.371Z,11.95
2018-09-06T03:46:24.478Z,11.75
2018-09-06T03:46:57.388Z,11.75
2018-09-06T03:47:30.335Z,12.63
2018-09-06T03:48:03.337Z,11.03
2018-09-06T03:48:36.569Z,11.85
2018-09-06T03:49:09.505Z,11.97
2018-09-06T03:49:42.615Z,11.35
2018-09-06T03:50:15.740Z,11.80
2018-09-06T03:50:48.810Z,11.90
2018-09-06T03:51:21.765Z,11.78
2018-09-06T03:51:54.694Z,12.40
2018-09-06T03:52:27.626Z,12.50
2018-09-06T03:53:00.601Z,11.83
2018-09-06T03:53:33.669Z,12.30
2018-09-06T03:54:06.811Z,12.03
2018-09-06T03:54:39.993Z,12.90
2018-09-06T03:55:13.128Z,12.10
2018-09-06T03:55:46.078Z,12.55
2018-09-06T03:56:19.003Z,11.53
2018-09-06T03:56:52.795Z,11.83
2018-09-06T03:57:25.827Z,12.50
2018-09-06T03:57:59.157Z,13.35
2018-09-06T03:58:32.280Z,12.00
2018-09-06T03:59:05.373Z,12.30
2018-09-06T03:59:38.589Z,12.80
2018-09-06T04:00:11.611Z,13.05
2018-09-06T04:00:44.554Z,12.45
2018-09-06T04:01:17.525Z,11.40
2018-09-06T04:01:50.525Z,12.10
2018-09-06T04:02:23.440Z,12.13
2018-09-06T04:02:56.369Z,12.85
2018-09-06T04:03:29.346Z,12.03
2018-09-06T04:04:02.428Z,12.65
2018-09-06T04:04:35.667Z,12.80
2018-09-06T04:05:08.591Z,11.55
2018-09-06T04:05:42.339Z,12.35
2018-09-06T04:06:15.415Z,12.70
2018-09-06T04:06:48.383Z,12.05
2018-09-06T04:07:21.562Z,11.43
2018-09-06T04:07:54.973Z,12.95
2018-09-06T04:08:28.257Z,12.73
2018-09-06T04:09:01.462Z,12.95
2018-09-06T04:09:34.525Z,11.15
2018-09-06T04:10:07.464Z,12.15
2018-09-06T04:10:40.649Z,13.62
2018-09-06T04:11:13.582Z,11.90
2018-09-06T04:11:46.505Z,13.50
2018-09-06T04:12:19.551Z,12.10
2018-09-06T04:12:52.729Z,12.35
2018-09-06T04:13:25.655Z,12.07
2018-09-06T04:13:58.598Z,12.13
2018-09-06T04:14:31.905Z,12.40
2018-09-06T04:15:05.098Z,12.70
2018-09-06T04:15:38.029Z,13.28
2018-09-06T04:16:11.123Z,11.68
2018-09-06T04:16:44.368Z,12.33
2018-09-06T04:17:17.545Z,13.35
2018-09-06T04:17:50.708Z,12.53
2018-09-06T04:18:23.947Z,14.25
2018-09-06T04:18:56.890Z,13.62
2018-09-06T04:19:29.849Z,12.23
2018-09-06T04:20:02.793Z,12.25
2018-09-06T04:20:35.838Z,12.03
2018-09-06T04:21:08.869Z,13.13
2018-09-06T04:21:42.140Z,12.75
2018-09-06T04:22:15.213Z,13.08
2018-09-06T04:22:50.464Z,13.05
2018-09-06T04:23:23.438Z,13.68
2018-09-06T04:23:56.587Z,12.98
2018-09-06T04:24:29.617Z,11.53
2018-09-06T04:25:02.744Z,11.78
2018-09-06T04:25:35.796Z,13.30
2018-09-06T04:26:09.101Z,13.03
2018-09-06T04:26:42.169Z,12.63
2018-09-06T04:27:15.333Z,14.00
2018-09-06T04:27:48.906Z,13.30
2018-09-06T04:28:21.839Z,12.68
2018-09-06T04:28:54.854Z,13.58
2018-09-06T04:29:27.784Z,13.30
2018-09-06T04:30:00.849Z,13.15
2018-09-06T04:30:34.110Z,13.55
2018-09-06T04:31:07.319Z,13.43
2018-09-06T04:31:40.417Z,12.78
2018-09-06T04:32:13.356Z,12.95
2018-09-06T04:32:46.561Z,12.63
2018-09-06T04:33:19.476Z,13.55
2018-09-06T04:33:52.629Z,13.43
2018-09-06T04:34:25.562Z,13.90
2018-09-06T04:34:58.637Z,11.70
2018-09-06T04:35:31.632Z,11.90
2018-09-06T04:36:04.635Z,14.03
2018-09-06T04:36:37.585Z,13.28
2018-09-06T04:37:10.590Z,13.03
2018-09-06T04:37:43.532Z,13.48
2018-09-06T04:38:16.822Z,13.65
2018-09-06T04:38:49.958Z,12.80
2018-09-06T04:39:23.074Z,12.35
2018-09-06T04:39:56.050Z,13.60
2018-09-06T04:40:28.981Z,12.80
2018-09-06T04:41:02.062Z,14.03
2018-09-06T04:41:35.029Z,12.95
2018-09-06T04:42:08.020Z,14.03
2018-09-06T04:42:40.959Z,13.40
2018-09-06T04:43:14.157Z,13.20
2018-09-06T04:43:47.384Z,13.53
2018-09-06T04:44:20.451Z,13.38
2018-09-06T04:44:53.379Z,13.45
2018-09-06T04:45:26.276Z,12.55
2018-09-06T04:45:59.206Z,13.08
2018-09-06T04:46:32.117Z,13.25
2018-09-06T04:47:05.277Z,12.93
2018-09-06T04:47:38.356Z,13.50
2018-09-06T04:48:11.411Z,13.45
2018-09-06T04:48:44.342Z,14.75
2018-09-06T04:49:17.395Z,13.32
2018-09-06T04:49:50.565Z,13.78
2018-09-06T04:50:23.771Z,13.32
2018-09-06T04:50:56.701Z,13.43
2018-09-06T04:51:29.642Z,13.18
2018-09-06T04:52:02.616Z,12.45
2018-09-06T04:52:35.561Z,14.30
2018-09-06T04:53:08.571Z,12.95
2018-09-06T04:53:41.525Z,13.35
2018-09-06T04:54:14.653Z,13.10
2018-09-06T04:54:47.851Z,12.55
2018-09-06T04:55:21.000Z,13.10
2018-09-06T04:55:54.176Z,13.20
2018-09-06T04:56:27.514Z,13.50
2018-09-06T04:57:00.500Z,13.98
2018-09-06T04:57:33.471Z,13.38
2018-09-06T04:58:06.534Z,13.45
2018-09-06T04:58:39.626Z,13.10
2018-09-06T04:59:12.656Z,12.50
2018-09-06T04:59:45.815Z,14.10
2018-09-06T05:00:18.961Z,13.90
2018-09-06T05:00:52.210Z,13.60
2018-09-06T05:01:25.466Z,13.32
2018-09-06T05:01:58.522Z,12.07
2018-09-06T05:02:31.449Z,12.63
2018-09-06T05:03:04.690Z,15.05
2018-09-06T05:03:37.722Z,14.05
2018-09-06T05:04:10.725Z,13.35
2018-09-06T05:04:43.814Z,14.40
2018-09-06T05:05:16.766Z,15.45
2018-09-06T05:05:49.694Z,14.00
2018-09-06T05:06:22.627Z,14.07
2018-09-06T05:06:55.560Z,13.20
2018-09-06T05:07:28.736Z,13.72
2018-09-06T05:08:02.021Z,12.18
2018-09-06T05:08:35.117Z,13.75
2018-09-06T05:09:08.354Z,13.00
2018-09-06T05:09:41.469Z,14.33
2018-09-06T05:10:14.381Z,14.28
2018-09-06T05:10:47.310Z,12.85
2018-09-06T05:11:20.526Z,14.47
2018-09-06T05:11:53.553Z,13.70
2018-09-06T05:12:26.785Z,13.90
2018-09-06T05:12:59.765Z,13.72
2018-09-06T05:13:32.798Z,13.30
2018-09-06T05:14:05.745Z,14.80
2018-09-06T05:14:38.825Z,13.88
2018-09-06T05:15:12.032Z,13.72
2018-09-06T05:15:45.057Z,14.25
2018-09-06T05:16:18.170Z,14.18
2018-09-06T05:16:51.394Z,15.35
2018-09-06T05:17:24.395Z,14.40
2018-09-06T05:17:57.751Z,15.08
2018-09-06T05:18:30.765Z,15.98
2018-09-06T05:19:03.684Z,13.95
2018-09-06T05:19:37.795Z,13.80
2018-09-06T05:20:10.726Z,14.38
2018-09-06T05:20:43.847Z,13.90
2018-09-06T05:21:17.017Z,14.98
2018-09-06T05:21:49.954Z,14.13
2018-09-06T05:22:22.982Z,13.03
2018-09-06T05:22:55.948Z,14.53
2018-09-06T05:23:29.559Z,14.35
2018-09-06T05:24:02.610Z,14.83
2018-09-06T05:24:36.045Z,14.20
2018-09-06T05:25:08.997Z,14.60
2018-09-06T05:25:42.093Z,13.60
2018-09-06T05:26:15.333Z,13.93
2018-09-06T05:26:48.348Z,14.60
2018-09-06T05:27:21.468Z,14.85
2018-09-06T05:27:54.506Z,14.03
2018-09-06T05:28:27.789Z,13.60
2018-09-06T05:29:00.916Z,12.90
2018-09-06T05:29:33.853Z,13.80
2018-09-06T05:30:06.831Z,13.62
2018-09-06T05:30:39.913Z,13.98
2018-09-06T05:31:12.971Z,14.43
2018-09-06T05:31:46.170Z,14.30
2018-09-06T05:32:19.308Z,14.00
2018-09-06T05:32:52.236Z,12.90
2018-09-06T05:33:25.248Z,14.50
2018-09-06T05:33:58.285Z,12.95
2018-09-06T05:34:31.226Z,14.70
2018-09-06T05:35:04.420Z,13.75
2018-09-06T05:35:37.543Z,13.68
2018-09-06T05:36:10.604Z,13.85
2018-09-06T05:36:43.544Z,14.18
2018-09-06T05:37:16.835Z,15.78
2018-09-06T05:37:50.167Z,14.85
2018-09-06T05:38:23.114Z,13.78
2018-09-06T05:38:56.317Z,14.65
2018-09-06T05:39:29.392Z,14.40
2018-09-06T05:40:02.423Z,15.75
2018-09-06T05:40:35.337Z,14.35
2018-09-06T05:41:08.462Z,13.48
2018-09-06T05:41:41.984Z,14.60
2018-09-06T05:42:15.008Z,13.43
2018-09-06T05:42:48.727Z,14.30
2018-09-06T05:43:21.804Z,15.18
2018-09-06T05:43:54.981Z,14.35
2018-09-06T05:44:28.059Z,13.90
2018-09-06T05:45:01.254Z,14.93
2018-09-06T05:45:34.428Z,14.95
2018-09-06T05:46:08.018Z,13.75
2018-09-06T05:46:41.687Z,14.85
2018-09-06T05:47:15.673Z,14.20
2018-09-06T05:47:54.275Z,14.35
2018-09-06T05:48:27.426Z,14.53
2018-09-06T05:49:00.605Z,14.23
2018-09-06T05:49:33.831Z,14.68
2018-09-06T05:50:07.043Z,15.72
2018-09-06T05:50:40.096Z,14.58
2018-09-06T05:51:13.362Z,14.25
2018-09-06T05:51:46.334Z,13.80
2018-09-06T05:52:19.306Z,15.18
2018-09-06T05:52:52.625Z,14.93
2018-09-06T05:53:25.745Z,14.25
2018-09-06T05:53:58.674Z,14.00
2018-09-06T05:54:31.826Z,14.13
2018-09-06T05:55:04.900Z,14.03
2018-09-06T05:55:37.822Z,14.90
2018-09-06T05:56:10.867Z,13.50
2018-09-06T05:56:43.853Z,13.65
2018-09-06T05:57:16.880Z,15.25
2018-09-06T05:57:49.857Z,14.53
2018-09-06T05:58:23.171Z,13.68
2018-09-06T05:58:56.168Z,13.75
2018-09-06T05:59:29.213Z,14.80
2018-09-06T06:00:05.287Z,15.70
2018-09-06T06:00:44.634Z,14.03
2018-09-06T06:01:17.585Z,15.05
2018-09-06T06:01:50.718Z,14.28
2018-09-06T06:02:23.893Z,14.30
2018-09-06T06:02:59.044Z,14.35
2018-09-06T06:03:32.036Z,15.13
2018-09-06T06:04:05.078Z,15.13
2018-09-06T06:04:38.110Z,14.55
2018-09-06T06:05:11.126Z,14.33
2018-09-06T06:05:44.097Z,13.70
2018-09-06T06:06:17.083Z,14.98
2018-09-06T06:06:50.352Z,14.60
2018-09-06T06:07:27.765Z,14.50
2018-09-06T06:08:06.714Z,14.75
2018-09-06T06:08:40.510Z,14.45
2018-09-06T06:09:13.695Z,14.87
2018-09-06T06:09:46.891Z,15.40
2018-09-06T06:10:19.936Z,14.60
2018-09-06T06:10:52.956Z,14.70
2018-09-06T06:11:26.086Z,14.20
2018-09-06T06:11:59.072Z,16.37
2018-09-06T06:12:32.196Z,15.80
2018-09-06T06:13:05.320Z,13.78
2018-09-06T06:13:38.657Z,14.93
2018-09-06T06:14:11.670Z,14.75
2018-09-06T06:14:44.949Z,14.00
2018-09-06T06:15:17.953Z,15.03
2018-09-06T06:15:51.251Z,13.43
2018-09-06T06:16:24.406Z,14.63
2018-09-06T06:16:57.440Z,13.78
2018-09-06T06:17:30.512Z,15.13
2018-09-06T06:18:03.595Z,15.00
2018-09-06T06:18:36.599Z,14.07
2018-09-06T06:19:09.874Z,12.73
2018-09-06T06:19:42.876Z,15.65
2018-09-06T06:20:15.914Z,15.53
2018-09-06T06:20:49.197Z,15.30
2018-09-06T06:21:22.194Z,16.17
2018-09-06T06:21:55.244Z,14.07
2018-09-06T06:22:28.467Z,13.53
2018-09-06T06:23:01.620Z,15.10
2018-09-06T06:23:34.690Z,15.28
2018-09-06T06:24:07.710Z,13.70
2018-09-06T06:24:40.875Z,14.30
2018-09-06T06:25:14.840Z,15.20
2018-09-06T06:25:47.813Z,15.20
2018-09-06T06:26:20.770Z,14.50
2018-09-06T06:26:53.884Z,14.35
2018-09-06T06:27:26.903Z,14.07
2018-09-06T06:27:59.938Z,15.60
2018-09-06T06:28:33.143Z,14.60
2018-09-06T06:29:06.317Z,15.35
2018-09-06T06:29:39.423Z,15.48
2018-09-06T06:30:12.656Z,14.80
2018-09-06T06:30:45.682Z,15.38
2018-09-06T06:31:18.711Z,14.13
2018-09-06T06:31:51.921Z,15.00
2018-09-06T06:32:25.082Z,13.70
2018-09-06T06:32:57.998Z,14.07
2018-09-06T06:33:31.053Z,15.08
2018-09-06T06:34:04.250Z,14.30
2018-09-06T06:34:38.148Z,14.53
2018-09-06T06:35:11.210Z,14.70
2018-09-06T06:35:44.320Z,16.02
2018-09-06T06:36:25.092Z,15.53
2018-09-06T06:36:59.177Z,15.40
2018-09-06T06:37:37.019Z,15.25
2018-09-06T06:38:09.997Z,14.83
2018-09-06T06:38:42.941Z,14.40
2018-09-06T06:39:17.185Z,15.30
2018-09-06T06:39:50.509Z,14.15
2018-09-06T06:40:23.733Z,13.65
2018-09-06T06:40:56.744Z,15.40
2018-09-06T06:41:30.283Z,14.90
2018-09-06T06:42:03.716Z,13.95
2018-09-06T06:42:36.750Z,15.08
2018-09-06T06:43:09.903Z,14.50
2018-09-06T06:43:42.974Z,14.00
2018-09-06T06:44:15.997Z,14.28
2018-09-06T06:44:49.116Z,14.47
2018-09-06T06:45:22.072Z,14.43
2018-09-06T06:45:55.371Z,13.45
2018-09-06T06:46:28.422Z,15.00
2018-09-06T06:47:01.627Z,14.78
2018-09-06T06:47:34.798Z,14.80
2018-09-06T06:48:08.084Z,14.60
2018-09-06T06:48:41.113Z,14.50
2018-09-06T06:49:14.056Z,14.05
2018-09-06T06:49:46.971Z,14.15
2018-09-06T06:50:20.085Z,14.33
2018-09-06T06:50:53.201Z,15.13
2018-09-06T06:51:26.215Z,14.95
2018-09-06T06:52:00.709Z,14.60
2018-09-06T06:52:34.739Z,14.47
2018-09-06T06:53:07.869Z,15.10
2018-09-06T06:53:40.941Z,14.20
2018-09-06T06:54:13.834Z,14.10
2018-09-06T06:54:46.837Z,15.00
2018-09-06T06:55:19.854Z,13.78
2018-09-06T06:55:52.796Z,14.80
2018-09-06T06:56:25.725Z,14.25
2018-09-06T06:56:59.222Z,13.85
2018-09-06T06:57:35.250Z,14.40
2018-09-06T06:58:08.206Z,14.78
2018-09-06T06:58:41.808Z,14.75
2018-09-06T06:59:14.841Z,13.53
2018-09-06T06:59:48.014Z,15.10
2018-09-06T07:00:22.176Z,13.43
2018-09-06T07:00:55.477Z,14.80
2018-09-06T07:01:28.317Z,15.20
2018-09-06T07:02:01.506Z,14.45
2018-09-06T07:02:36.044Z,14.00
2018-09-06T07:04:07.789Z,14.93
2018-09-06T07:04:41.089Z,14.83
2018-09-06T07:05:17.635Z,14.35
2018-09-06T07:05:50.552Z,14.15
2018-09-06T07:06:23.653Z,14.80
2018-09-06T07:06:56.971Z,14.38
2018-09-06T07:07:30.051Z,13.62
2018-09-06T07:08:03.304Z,14.43
2018-09-06T07:08:36.231Z,14.45
2018-09-06T07:09:10.128Z,14.30
2018-09-06T07:09:43.067Z,12.73
2018-09-06T07:10:16.067Z,13.90
2018-09-06T07:10:49.102Z,14.40
2018-09-06T07:11:22.039Z,15.40
2018-09-06T07:11:55.192Z,13.95
2018-09-06T07:12:28.347Z,13.75
2018-09-06T07:13:01.287Z,13.40